sensor_id;sensor_type;location;lat;lon;timestamp;P1;durP1;ratioP1;P2;durP2;ratioP2
59336;SDS011;45115;52.002;4.686;2024-02-14T00:00:29;21.95;;;12.65;;
59336;SDS011;45115;52.002;4.686;2024-02-14T00:02:56;19.40;;;11.35;;
59336;SDS011;45115;52.002;4.686;2024-02-14T00:05:22;22.65;;;12.20;;
59336;SDS011;45115;52.002;4.686;2024-02-14T00:07:49;22.38;;;11.90;;
59336;SDS011;45115;52.002;4.686;2024-02-14T00:10:16;21.83;;;13.20;;
59336;SDS011;45115;52.002;4.686;2024-02-14T00:12:44;21.65;;;12.30;;
59336;SDS011;45115;52.002;4.686;2024-02-14T00:15:11;23.67;;;12.73;;
59336;SDS011;45115;52.002;4.686;2024-02-14T00:17:38;27.60;;;13.13;;
59336;SDS011;45115;52.002;4.686;2024-02-14T00:20:05;23.13;;;12.73;;
59336;SDS011;45115;52.002;4.686;2024-02-14T00:22:35;23.00;;;12.70;;
59336;SDS011;45115;52.002;4.686;2024-02-14T00:25:02;23.83;;;12.85;;
59336;SDS011;45115;52.002;4.686;2024-02-14T00:27:29;23.92;;;13.02;;
59336;SDS011;45115;52.002;4.686;2024-02-14T00:29:57;24.25;;;13.20;;
59336;SDS011;45115;52.002;4.686;2024-02-14T00:32:24;25.60;;;14.05;;
59336;SDS011;45115;52.002;4.686;2024-02-14T00:34:51;26.55;;;14.15;;
59336;SDS011;45115;52.002;4.686;2024-02-14T00:37:18;24.42;;;14.10;;
59336;SDS011;45115;52.002;4.686;2024-02-14T00:39:44;24.05;;;13.80;;
59336;SDS011;45115;52.002;4.686;2024-02-14T00:42:13;26.05;;;13.30;;
59336;SDS011;45115;52.002;4.686;2024-02-14T00:44:40;22.13;;;12.98;;
59336;SDS011;45115;52.002;4.686;2024-02-14T00:47:08;23.98;;;12.75;;
59336;SDS011;45115;52.002;4.686;2024-02-14T00:49:34;22.88;;;12.77;;
59336;SDS011;45115;52.002;4.686;2024-02-14T00:52:02;21.75;;;12.15;;
59336;SDS011;45115;52.002;4.686;2024-02-14T00:54:29;24.40;;;12.88;;
59336;SDS011;45115;52.002;4.686;2024-02-14T00:56:56;24.45;;;13.68;;
59336;SDS011;45115;52.002;4.686;2024-02-14T00:59:22;26.38;;;14.55;;
59336;SDS011;45115;52.002;4.686;2024-02-14T01:01:49;25.55;;;14.25;;
59336;SDS011;45115;52.002;4.686;2024-02-14T01:04:18;24.67;;;13.55;;
59336;SDS011;45115;52.002;4.686;2024-02-14T01:06:44;28.80;;;14.10;;
59336;SDS011;45115;52.002;4.686;2024-02-14T01:09:11;24.45;;;13.50;;
59336;SDS011;45115;52.002;4.686;2024-02-14T01:11:38;26.70;;;13.63;;
59336;SDS011;45115;52.002;4.686;2024-02-14T01:14:04;31.08;;;14.40;;
59336;SDS011;45115;52.002;4.686;2024-02-14T01:16:31;25.75;;;15.38;;
59336;SDS011;45115;52.002;4.686;2024-02-14T01:18:58;25.85;;;14.13;;
59336;SDS011;45115;52.002;4.686;2024-02-14T01:21:26;23.33;;;14.45;;
59336;SDS011;45115;52.002;4.686;2024-02-14T01:23:52;28.00;;;13.85;;
59336;SDS011;45115;52.002;4.686;2024-02-14T01:26:19;26.38;;;14.75;;
59336;SDS011;45115;52.002;4.686;2024-02-14T01:28:46;27.75;;;14.07;;
59336;SDS011;45115;52.002;4.686;2024-02-14T01:31:13;26.88;;;14.30;;
59336;SDS011;45115;52.002;4.686;2024-02-14T01:33:40;25.60;;;14.75;;
59336;SDS011;45115;52.002;4.686;2024-02-14T01:36:06;25.08;;;13.80;;
59336;SDS011;45115;52.002;4.686;2024-02-14T01:38:34;26.10;;;15.00;;
59336;SDS011;45115;52.002;4.686;2024-02-14T01:41:02;27.50;;;15.00;;
59336;SDS011;45115;52.002;4.686;2024-02-14T01:43:29;23.85;;;13.65;;
59336;SDS011;45115;52.002;4.686;2024-02-14T01:45:56;24.10;;;14.60;;
59336;SDS011;45115;52.002;4.686;2024-02-14T01:48:30;25.00;;;14.90;;
59336;SDS011;45115;52.002;4.686;2024-02-14T01:51:00;25.67;;;14.40;;
59336;SDS011;45115;52.002;4.686;2024-02-14T01:53:28;25.37;;;13.27;;
59336;SDS011;45115;52.002;4.686;2024-02-14T01:55:59;23.95;;;13.77;;
59336;SDS011;45115;52.002;4.686;2024-02-14T01:58:25;23.65;;;12.65;;
59336;SDS011;45115;52.002;4.686;2024-02-14T02:00:53;21.75;;;12.18;;
59336;SDS011;45115;52.002;4.686;2024-02-14T02:03:22;21.45;;;11.85;;
59336;SDS011;45115;52.002;4.686;2024-02-14T02:05:50;22.48;;;12.60;;
59336;SDS011;45115;52.002;4.686;2024-02-14T02:08:17;24.33;;;13.77;;
59336;SDS011;45115;52.002;4.686;2024-02-14T02:10:43;22.85;;;12.43;;
59336;SDS011;45115;52.002;4.686;2024-02-14T02:13:11;21.17;;;12.32;;
59336;SDS011;45115;52.002;4.686;2024-02-14T02:15:40;19.67;;;11.52;;
59336;SDS011;45115;52.002;4.686;2024-02-14T02:18:10;19.35;;;11.02;;
59336;SDS011;45115;52.002;4.686;2024-02-14T02:20:36;20.52;;;11.25;;
59336;SDS011;45115;52.002;4.686;2024-02-14T02:23:05;17.35;;;10.18;;
59336;SDS011;45115;52.002;4.686;2024-02-14T02:25:33;19.63;;;10.88;;
59336;SDS011;45115;52.002;4.686;2024-02-14T02:28:00;18.02;;;9.63;;
59336;SDS011;45115;52.002;4.686;2024-02-14T02:30:27;19.67;;;10.98;;
59336;SDS011;45115;52.002;4.686;2024-02-14T02:32:53;19.20;;;9.23;;
59336;SDS011;45115;52.002;4.686;2024-02-14T02:35:21;16.85;;;9.55;;
59336;SDS011;45115;52.002;4.686;2024-02-14T02:37:49;19.73;;;9.18;;
59336;SDS011;45115;52.002;4.686;2024-02-14T02:40:19;17.58;;;9.13;;
59336;SDS011;45115;52.002;4.686;2024-02-14T02:42:46;19.63;;;10.32;;
59336;SDS011;45115;52.002;4.686;2024-02-14T02:45:15;19.00;;;10.18;;
59336;SDS011;45115;52.002;4.686;2024-02-14T02:47:42;19.23;;;10.73;;
59336;SDS011;45115;52.002;4.686;2024-02-14T02:50:08;19.85;;;10.43;;
59336;SDS011;45115;52.002;4.686;2024-02-14T02:52:35;20.45;;;10.52;;
59336;SDS011;45115;52.002;4.686;2024-02-14T02:55:03;22.17;;;11.50;;
59336;SDS011;45115;52.002;4.686;2024-02-14T02:57:31;19.83;;;10.85;;
59336;SDS011;45115;52.002;4.686;2024-02-14T02:59:59;20.00;;;10.25;;
59336;SDS011;45115;52.002;4.686;2024-02-14T03:02:26;22.77;;;10.48;;
59336;SDS011;45115;52.002;4.686;2024-02-14T03:04:53;22.45;;;10.70;;
59336;SDS011;45115;52.002;4.686;2024-02-14T03:07:20;20.23;;;10.80;;
59336;SDS011;45115;52.002;4.686;2024-02-14T03:09:48;23.60;;;11.73;;
59336;SDS011;45115;52.002;4.686;2024-02-14T03:12:15;25.38;;;12.05;;
59336;SDS011;45115;52.002;4.686;2024-02-14T03:14:45;26.95;;;12.10;;
59336;SDS011;45115;52.002;4.686;2024-02-14T03:17:12;30.00;;;14.20;;
59336;SDS011;45115;52.002;4.686;2024-02-14T03:19:39;24.15;;;12.63;;
59336;SDS011;45115;52.002;4.686;2024-02-14T03:22:06;29.83;;;13.48;;
59336;SDS011;45115;52.002;4.686;2024-02-14T03:24:34;22.80;;;12.25;;
59336;SDS011;45115;52.002;4.686;2024-02-14T03:27:02;25.90;;;12.65;;
59336;SDS011;45115;52.002;4.686;2024-02-14T03:29:30;30.17;;;13.50;;
59336;SDS011;45115;52.002;4.686;2024-02-14T03:31:58;26.30;;;13.18;;
59336;SDS011;45115;52.002;4.686;2024-02-14T03:34:29;27.60;;;14.23;;
59336;SDS011;45115;52.002;4.686;2024-02-14T03:36:58;26.38;;;13.25;;
59336;SDS011;45115;52.002;4.686;2024-02-14T03:39:27;28.80;;;13.77;;
59336;SDS011;45115;52.002;4.686;2024-02-14T03:41:54;28.92;;;13.10;;
59336;SDS011;45115;52.002;4.686;2024-02-14T03:44:21;31.17;;;13.95;;
59336;SDS011;45115;52.002;4.686;2024-02-14T03:46:48;23.98;;;12.30;;
59336;SDS011;45115;52.002;4.686;2024-02-14T03:49:16;25.23;;;13.82;;
59336;SDS011;45115;52.002;4.686;2024-02-14T03:51:42;26.10;;;13.20;;
59336;SDS011;45115;52.002;4.686;2024-02-14T03:54:09;24.00;;;12.90;;
59336;SDS011;45115;52.002;4.686;2024-02-14T03:56:36;26.83;;;13.23;;
59336;SDS011;45115;52.002;4.686;2024-02-14T03:59:03;27.90;;;12.73;;
59336;SDS011;45115;52.002;4.686;2024-02-14T04:01:32;25.50;;;12.68;;
59336;SDS011;45115;52.002;4.686;2024-02-14T04:03:59;28.42;;;13.90;;
59336;SDS011;45115;52.002;4.686;2024-02-14T04:06:27;24.08;;;12.15;;
59336;SDS011;45115;52.002;4.686;2024-02-14T04:08:57;23.80;;;12.45;;
59336;SDS011;45115;52.002;4.686;2024-02-14T04:11:24;25.40;;;12.98;;
59336;SDS011;45115;52.002;4.686;2024-02-14T04:13:50;24.80;;;13.05;;
59336;SDS011;45115;52.002;4.686;2024-02-14T04:16:18;25.10;;;12.85;;
59336;SDS011;45115;52.002;4.686;2024-02-14T04:18:45;24.23;;;11.48;;
59336;SDS011;45115;52.002;4.686;2024-02-14T04:21:12;24.65;;;12.13;;
59336;SDS011;45115;52.002;4.686;2024-02-14T04:23:40;29.30;;;13.05;;
59336;SDS011;45115;52.002;4.686;2024-02-14T04:26:07;30.42;;;14.63;;
59336;SDS011;45115;52.002;4.686;2024-02-14T04:28:34;25.80;;;12.40;;
59336;SDS011;45115;52.002;4.686;2024-02-14T04:31:01;29.50;;;14.05;;
59336;SDS011;45115;52.002;4.686;2024-02-14T04:33:27;27.08;;;13.80;;
59336;SDS011;45115;52.002;4.686;2024-02-14T04:35:55;31.50;;;14.07;;
59336;SDS011;45115;52.002;4.686;2024-02-14T04:38:22;26.88;;;14.10;;
59336;SDS011;45115;52.002;4.686;2024-02-14T04:40:50;27.27;;;13.82;;
59336;SDS011;45115;52.002;4.686;2024-02-14T04:43:17;30.75;;;14.85;;
59336;SDS011;45115;52.002;4.686;2024-02-14T04:45:44;28.13;;;12.80;;
59336;SDS011;45115;52.002;4.686;2024-02-14T04:48:12;26.88;;;12.73;;
59336;SDS011;45115;52.002;4.686;2024-02-14T04:50:39;29.58;;;13.15;;
59336;SDS011;45115;52.002;4.686;2024-02-14T04:53:06;29.10;;;13.00;;
59336;SDS011;45115;52.002;4.686;2024-02-14T04:55:33;25.83;;;12.77;;
59336;SDS011;45115;52.002;4.686;2024-02-14T04:58:01;25.65;;;12.20;;
59336;SDS011;45115;52.002;4.686;2024-02-14T05:00:28;29.52;;;12.23;;
59336;SDS011;45115;52.002;4.686;2024-02-14T05:02:54;24.55;;;11.18;;
59336;SDS011;45115;52.002;4.686;2024-02-14T05:05:22;22.55;;;10.93;;
59336;SDS011;45115;52.002;4.686;2024-02-14T05:07:49;22.63;;;11.32;;
59336;SDS011;45115;52.002;4.686;2024-02-14T05:10:16;22.85;;;11.50;;
59336;SDS011;45115;52.002;4.686;2024-02-14T05:12:43;28.45;;;14.18;;
59336;SDS011;45115;52.002;4.686;2024-02-14T05:15:11;25.30;;;12.75;;
59336;SDS011;45115;52.002;4.686;2024-02-14T05:17:41;27.20;;;13.18;;
59336;SDS011;45115;52.002;4.686;2024-02-14T05:20:08;25.83;;;12.73;;
59336;SDS011;45115;52.002;4.686;2024-02-14T05:22:36;27.05;;;13.18;;
59336;SDS011;45115;52.002;4.686;2024-02-14T05:25:03;25.40;;;12.68;;
59336;SDS011;45115;52.002;4.686;2024-02-14T05:27:30;24.15;;;11.70;;
59336;SDS011;45115;52.002;4.686;2024-02-14T05:29:57;23.50;;;11.23;;
59336;SDS011;45115;52.002;4.686;2024-02-14T05:32:25;24.17;;;12.73;;
59336;SDS011;45115;52.002;4.686;2024-02-14T05:34:52;26.00;;;12.38;;
59336;SDS011;45115;52.002;4.686;2024-02-14T05:37:19;22.48;;;11.27;;
59336;SDS011;45115;52.002;4.686;2024-02-14T05:39:46;21.50;;;10.98;;
59336;SDS011;45115;52.002;4.686;2024-02-14T05:42:12;21.23;;;10.48;;
59336;SDS011;45115;52.002;4.686;2024-02-14T05:44:41;19.83;;;10.38;;
59336;SDS011;45115;52.002;4.686;2024-02-14T05:47:08;21.30;;;10.15;;
59336;SDS011;45115;52.002;4.686;2024-02-14T05:49:37;20.33;;;10.70;;
59336;SDS011;45115;52.002;4.686;2024-02-14T05:52:05;19.83;;;10.30;;
59336;SDS011;45115;52.002;4.686;2024-02-14T05:54:31;22.73;;;10.63;;
59336;SDS011;45115;52.002;4.686;2024-02-14T05:56:58;18.95;;;10.18;;
59336;SDS011;45115;52.002;4.686;2024-02-14T05:59:25;20.83;;;9.85;;
59336;SDS011;45115;52.002;4.686;2024-02-14T06:01:52;22.67;;;10.80;;
59336;SDS011;45115;52.002;4.686;2024-02-14T06:04:18;23.38;;;10.77;;
59336;SDS011;45115;52.002;4.686;2024-02-14T06:06:46;27.02;;;12.35;;
59336;SDS011;45115;52.002;4.686;2024-02-14T06:09:13;26.00;;;11.68;;
59336;SDS011;45115;52.002;4.686;2024-02-14T06:11:40;24.52;;;12.43;;
59336;SDS011;45115;52.002;4.686;2024-02-14T06:14:07;24.27;;;11.32;;
59336;SDS011;45115;52.002;4.686;2024-02-14T06:16:35;30.63;;;14.18;;
59336;SDS011;45115;52.002;4.686;2024-02-14T06:19:01;28.15;;;13.60;;
59336;SDS011;45115;52.002;4.686;2024-02-14T06:21:29;26.52;;;12.80;;
59336;SDS011;45115;52.002;4.686;2024-02-14T06:23:59;27.70;;;13.27;;
59336;SDS011;45115;52.002;4.686;2024-02-14T06:26:26;24.98;;;13.30;;
59336;SDS011;45115;52.002;4.686;2024-02-14T06:28:52;29.35;;;12.70;;
59336;SDS011;45115;52.002;4.686;2024-02-14T06:31:19;27.02;;;13.25;;
59336;SDS011;45115;52.002;4.686;2024-02-14T06:33:46;26.35;;;13.32;;
59336;SDS011;45115;52.002;4.686;2024-02-14T06:36:13;26.00;;;12.77;;
59336;SDS011;45115;52.002;4.686;2024-02-14T06:38:39;25.58;;;12.90;;
59336;SDS011;45115;52.002;4.686;2024-02-14T06:41:08;27.30;;;13.25;;
59336;SDS011;45115;52.002;4.686;2024-02-14T06:43:34;26.90;;;12.75;;
59336;SDS011;45115;52.002;4.686;2024-02-14T06:46:04;25.73;;;12.77;;
59336;SDS011;45115;52.002;4.686;2024-02-14T06:48:30;26.10;;;12.75;;
59336;SDS011;45115;52.002;4.686;2024-02-14T06:50:58;25.20;;;13.13;;
59336;SDS011;45115;52.002;4.686;2024-02-14T06:53:24;27.25;;;12.55;;
59336;SDS011;45115;52.002;4.686;2024-02-14T06:55:51;28.45;;;12.23;;
59336;SDS011;45115;52.002;4.686;2024-02-14T06:58:19;27.63;;;13.27;;
59336;SDS011;45115;52.002;4.686;2024-02-14T07:00:45;23.73;;;12.63;;
59336;SDS011;45115;52.002;4.686;2024-02-14T07:03:12;23.73;;;12.32;;
59336;SDS011;45115;52.002;4.686;2024-02-14T07:05:38;23.92;;;12.75;;
59336;SDS011;45115;52.002;4.686;2024-02-14T07:08:07;25.17;;;12.10;;
59336;SDS011;45115;52.002;4.686;2024-02-14T07:10:33;24.40;;;10.63;;
59336;SDS011;45115;52.002;4.686;2024-02-14T07:13:00;23.30;;;11.85;;
59336;SDS011;45115;52.002;4.686;2024-02-14T07:15:31;25.85;;;11.60;;
59336;SDS011;45115;52.002;4.686;2024-02-14T07:18:07;22.60;;;11.10;;
59336;SDS011;45115;52.002;4.686;2024-02-14T07:20:35;21.40;;;11.15;;
59336;SDS011;45115;52.002;4.686;2024-02-14T07:23:01;21.52;;;10.85;;
59336;SDS011;45115;52.002;4.686;2024-02-14T07:25:29;22.52;;;10.27;;
59336;SDS011;45115;52.002;4.686;2024-02-14T07:27:56;21.15;;;10.38;;
59336;SDS011;45115;52.002;4.686;2024-02-14T07:30:22;22.95;;;11.38;;
59336;SDS011;45115;52.002;4.686;2024-02-14T07:32:51;20.27;;;10.80;;
59336;SDS011;45115;52.002;4.686;2024-02-14T07:35:17;20.92;;;10.90;;
59336;SDS011;45115;52.002;4.686;2024-02-14T07:37:44;22.42;;;10.98;;
59336;SDS011;45115;52.002;4.686;2024-02-14T07:40:11;23.98;;;11.32;;
59336;SDS011;45115;52.002;4.686;2024-02-14T07:42:38;22.42;;;11.40;;
59336;SDS011;45115;52.002;4.686;2024-02-14T07:45:05;18.42;;;9.25;;
59336;SDS011;45115;52.002;4.686;2024-02-14T07:47:31;18.17;;;9.88;;
59336;SDS011;45115;52.002;4.686;2024-02-14T07:49:59;19.48;;;10.13;;
59336;SDS011;45115;52.002;4.686;2024-02-14T07:52:27;20.13;;;9.73;;
59336;SDS011;45115;52.002;4.686;2024-02-14T07:54:54;20.42;;;9.10;;
59336;SDS011;45115;52.002;4.686;2024-02-14T07:57:21;17.40;;;8.98;;
59336;SDS011;45115;52.002;4.686;2024-02-14T07:59:49;18.50;;;9.60;;
59336;SDS011;45115;52.002;4.686;2024-02-14T08:02:16;18.35;;;9.18;;
59336;SDS011;45115;52.002;4.686;2024-02-14T08:04:43;19.90;;;9.18;;
59336;SDS011;45115;52.002;4.686;2024-02-14T08:07:12;18.20;;;8.75;;
59336;SDS011;45115;52.002;4.686;2024-02-14T08:09:38;19.05;;;9.52;;
59336;SDS011;45115;52.002;4.686;2024-02-14T08:12:05;17.33;;;8.35;;
59336;SDS011;45115;52.002;4.686;2024-02-14T08:14:32;18.42;;;8.23;;
59336;SDS011;45115;52.002;4.686;2024-02-14T08:16:59;16.88;;;8.45;;
59336;SDS011;45115;52.002;4.686;2024-02-14T08:19:25;17.70;;;8.60;;
59336;SDS011;45115;52.002;4.686;2024-02-14T08:21:53;18.42;;;8.52;;
59336;SDS011;45115;52.002;4.686;2024-02-14T08:24:24;16.70;;;7.82;;
59336;SDS011;45115;52.002;4.686;2024-02-14T08:26:51;14.82;;;7.82;;
59336;SDS011;45115;52.002;4.686;2024-02-14T08:29:18;13.48;;;7.00;;
59336;SDS011;45115;52.002;4.686;2024-02-14T08:31:45;13.60;;;7.28;;
59336;SDS011;45115;52.002;4.686;2024-02-14T08:34:11;11.90;;;6.60;;
59336;SDS011;45115;52.002;4.686;2024-02-14T08:36:38;13.45;;;6.70;;
59336;SDS011;45115;52.002;4.686;2024-02-14T08:39:06;15.43;;;7.85;;
59336;SDS011;45115;52.002;4.686;2024-02-14T08:41:34;15.13;;;7.57;;
59336;SDS011;45115;52.002;4.686;2024-02-14T08:44:01;16.60;;;7.88;;
59336;SDS011;45115;52.002;4.686;2024-02-14T08:46:28;17.90;;;8.38;;
59336;SDS011;45115;52.002;4.686;2024-02-14T08:48:54;18.05;;;8.85;;
59336;SDS011;45115;52.002;4.686;2024-02-14T08:51:21;15.85;;;7.43;;
59336;SDS011;45115;52.002;4.686;2024-02-14T08:53:48;17.27;;;8.32;;
59336;SDS011;45115;52.002;4.686;2024-02-14T08:56:20;16.50;;;8.52;;
59336;SDS011;45115;52.002;4.686;2024-02-14T08:58:48;16.25;;;8.55;;
59336;SDS011;45115;52.002;4.686;2024-02-14T09:01:15;16.50;;;8.82;;
59336;SDS011;45115;52.002;4.686;2024-02-14T09:03:41;19.73;;;8.55;;
59336;SDS011;45115;52.002;4.686;2024-02-14T09:06:12;17.00;;;8.80;;
59336;SDS011;45115;52.002;4.686;2024-02-14T09:08:39;18.63;;;9.38;;
59336;SDS011;45115;52.002;4.686;2024-02-14T09:11:06;17.98;;;8.77;;
59336;SDS011;45115;52.002;4.686;2024-02-14T09:13:34;15.90;;;8.23;;
59336;SDS011;45115;52.002;4.686;2024-02-14T09:16:02;16.17;;;8.57;;
59336;SDS011;45115;52.002;4.686;2024-02-14T09:18:28;18.08;;;8.77;;
59336;SDS011;45115;52.002;4.686;2024-02-14T09:20:56;16.60;;;7.85;;
59336;SDS011;45115;52.002;4.686;2024-02-14T09:23:23;15.68;;;7.07;;
59336;SDS011;45115;52.002;4.686;2024-02-14T09:25:50;17.33;;;9.30;;
59336;SDS011;45115;52.002;4.686;2024-02-14T09:28:17;14.63;;;7.25;;
59336;SDS011;45115;52.002;4.686;2024-02-14T09:30:44;12.55;;;6.30;;
59336;SDS011;45115;52.002;4.686;2024-02-14T09:33:12;15.00;;;7.07;;
59336;SDS011;45115;52.002;4.686;2024-02-14T09:35:40;17.20;;;7.60;;
59336;SDS011;45115;52.002;4.686;2024-02-14T09:38:09;15.80;;;8.35;;
59336;SDS011;45115;52.002;4.686;2024-02-14T09:40:36;15.32;;;7.03;;
59336;SDS011;45115;52.002;4.686;2024-02-14T09:43:03;14.15;;;6.57;;
59336;SDS011;45115;52.002;4.686;2024-02-14T09:45:34;16.05;;;6.90;;
59336;SDS011;45115;52.002;4.686;2024-02-14T09:48:03;14.38;;;6.75;;
59336;SDS011;45115;52.002;4.686;2024-02-14T09:50:32;13.05;;;6.90;;
59336;SDS011;45115;52.002;4.686;2024-02-14T09:52:59;11.70;;;6.18;;
59336;SDS011;45115;52.002;4.686;2024-02-14T09:55:28;12.48;;;6.60;;
59336;SDS011;45115;52.002;4.686;2024-02-14T09:57:55;14.95;;;7.15;;
59336;SDS011;45115;52.002;4.686;2024-02-14T10:00:22;14.10;;;6.30;;
59336;SDS011;45115;52.002;4.686;2024-02-14T10:02:55;12.02;;;6.47;;
59336;SDS011;45115;52.002;4.686;2024-02-14T10:05:22;13.73;;;6.45;;
59336;SDS011;45115;52.002;4.686;2024-02-14T10:07:50;10.75;;;5.45;;
59336;SDS011;45115;52.002;4.686;2024-02-14T10:10:17;13.90;;;6.07;;
59336;SDS011;45115;52.002;4.686;2024-02-14T10:12:43;11.88;;;6.13;;
59336;SDS011;45115;52.002;4.686;2024-02-14T10:15:11;11.75;;;5.90;;
59336;SDS011;45115;52.002;4.686;2024-02-14T10:17:38;9.60;;;5.63;;
59336;SDS011;45115;52.002;4.686;2024-02-14T10:20:06;12.10;;;5.78;;
59336;SDS011;45115;52.002;4.686;2024-02-14T10:22:34;10.63;;;5.90;;
59336;SDS011;45115;52.002;4.686;2024-02-14T10:25:02;12.60;;;5.60;;
59336;SDS011;45115;52.002;4.686;2024-02-14T10:27:29;10.93;;;5.60;;
59336;SDS011;45115;52.002;4.686;2024-02-14T10:29:56;11.52;;;5.43;;
59336;SDS011;45115;52.002;4.686;2024-02-14T10:32:23;10.90;;;5.60;;
59336;SDS011;45115;52.002;4.686;2024-02-14T10:34:50;10.30;;;5.07;;
59336;SDS011;45115;52.002;4.686;2024-02-14T10:37:17;8.95;;;5.05;;
59336;SDS011;45115;52.002;4.686;2024-02-14T10:39:47;11.40;;;5.47;;
59336;SDS011;45115;52.002;4.686;2024-02-14T10:42:19;11.38;;;5.70;;
59336;SDS011;45115;52.002;4.686;2024-02-14T10:44:45;11.00;;;5.55;;
59336;SDS011;45115;52.002;4.686;2024-02-14T10:47:14;9.52;;;5.28;;
59336;SDS011;45115;52.002;4.686;2024-02-14T10:49:46;9.88;;;5.68;;
59336;SDS011;45115;52.002;4.686;2024-02-14T10:52:16;11.30;;;6.05;;
59336;SDS011;45115;52.002;4.686;2024-02-14T10:54:45;12.88;;;6.43;;
59336;SDS011;45115;52.002;4.686;2024-02-14T10:57:19;13.77;;;8.02;;
59336;SDS011;45115;52.002;4.686;2024-02-14T10:59:47;15.38;;;7.53;;
59336;SDS011;45115;52.002;4.686;2024-02-14T11:02:15;14.27;;;6.88;;
59336;SDS011;45115;52.002;4.686;2024-02-14T11:04:42;13.77;;;7.53;;
59336;SDS011;45115;52.002;4.686;2024-02-14T11:07:09;14.77;;;7.00;;
59336;SDS011;45115;52.002;4.686;2024-02-14T11:09:38;13.32;;;6.85;;
59336;SDS011;45115;52.002;4.686;2024-02-14T11:12:06;12.85;;;7.68;;
59336;SDS011;45115;52.002;4.686;2024-02-14T11:14:36;16.27;;;7.75;;
59336;SDS011;45115;52.002;4.686;2024-02-14T11:17:04;13.48;;;7.03;;
59336;SDS011;45115;52.002;4.686;2024-02-14T11:19:32;16.55;;;8.02;;
59336;SDS011;45115;52.002;4.686;2024-02-14T11:22:09;16.08;;;8.18;;
59336;SDS011;45115;52.002;4.686;2024-02-14T11:24:37;15.43;;;7.57;;
59336;SDS011;45115;52.002;4.686;2024-02-14T11:27:03;15.13;;;7.68;;
59336;SDS011;45115;52.002;4.686;2024-02-14T11:29:38;15.02;;;7.57;;
59336;SDS011;45115;52.002;4.686;2024-02-14T11:32:05;12.90;;;6.97;;
59336;SDS011;45115;52.002;4.686;2024-02-14T11:34:33;13.63;;;6.65;;
59336;SDS011;45115;52.002;4.686;2024-02-14T11:37:00;13.70;;;6.88;;
59336;SDS011;45115;52.002;4.686;2024-02-14T11:39:27;16.25;;;7.18;;
59336;SDS011;45115;52.002;4.686;2024-02-14T11:41:56;13.73;;;6.43;;
59336;SDS011;45115;52.002;4.686;2024-02-14T11:44:24;12.57;;;6.75;;
59336;SDS011;45115;52.002;4.686;2024-02-14T11:46:52;14.75;;;7.45;;
59336;SDS011;45115;52.002;4.686;2024-02-14T11:49:20;11.90;;;7.38;;
59336;SDS011;45115;52.002;4.686;2024-02-14T11:51:47;12.70;;;7.70;;
59336;SDS011;45115;52.002;4.686;2024-02-14T11:54:14;15.10;;;8.52;;
59336;SDS011;45115;52.002;4.686;2024-02-14T11:56:43;15.45;;;7.93;;
59336;SDS011;45115;52.002;4.686;2024-02-14T11:59:09;11.68;;;6.72;;
59336;SDS011;45115;52.002;4.686;2024-02-14T12:01:37;12.75;;;6.68;;
59336;SDS011;45115;52.002;4.686;2024-02-14T12:04:06;14.13;;;7.28;;
59336;SDS011;45115;52.002;4.686;2024-02-14T12:06:35;13.65;;;6.20;;
59336;SDS011;45115;52.002;4.686;2024-02-14T12:09:03;11.23;;;6.05;;
59336;SDS011;45115;52.002;4.686;2024-02-14T12:11:31;13.20;;;6.93;;
59336;SDS011;45115;52.002;4.686;2024-02-14T12:14:00;11.88;;;6.35;;
59336;SDS011;45115;52.002;4.686;2024-02-14T12:16:28;11.20;;;6.10;;
59336;SDS011;45115;52.002;4.686;2024-02-14T12:19:03;11.77;;;6.05;;
59336;SDS011;45115;52.002;4.686;2024-02-14T12:21:34;12.25;;;7.00;;
59336;SDS011;45115;52.002;4.686;2024-02-14T12:24:01;12.68;;;6.47;;
59336;SDS011;45115;52.002;4.686;2024-02-14T12:26:29;12.73;;;6.15;;
59336;SDS011;45115;52.002;4.686;2024-02-14T12:28:57;11.90;;;6.18;;
59336;SDS011;45115;52.002;4.686;2024-02-14T12:31:24;12.00;;;5.85;;
59336;SDS011;45115;52.002;4.686;2024-02-14T12:33:52;9.75;;;5.82;;
59336;SDS011;45115;52.002;4.686;2024-02-14T12:36:22;10.40;;;5.45;;
59336;SDS011;45115;52.002;4.686;2024-02-14T12:38:49;8.70;;;5.18;;
59336;SDS011;45115;52.002;4.686;2024-02-14T12:41:16;10.35;;;5.10;;
59336;SDS011;45115;52.002;4.686;2024-02-14T12:43:43;10.30;;;6.07;;
59336;SDS011;45115;52.002;4.686;2024-02-14T12:46:10;9.20;;;5.28;;
59336;SDS011;45115;52.002;4.686;2024-02-14T12:48:37;9.73;;;5.47;;
59336;SDS011;45115;52.002;4.686;2024-02-14T12:51:04;10.20;;;5.53;;
59336;SDS011;45115;52.002;4.686;2024-02-14T12:53:34;8.13;;;5.20;;
59336;SDS011;45115;52.002;4.686;2024-02-14T12:56:00;8.90;;;5.10;;
59336;SDS011;45115;52.002;4.686;2024-02-14T12:58:27;8.95;;;4.90;;
59336;SDS011;45115;52.002;4.686;2024-02-14T13:00:54;9.23;;;5.28;;
59336;SDS011;45115;52.002;4.686;2024-02-14T13:03:21;8.50;;;4.60;;
59336;SDS011;45115;52.002;4.686;2024-02-14T13:05:48;10.25;;;5.00;;
59336;SDS011;45115;52.002;4.686;2024-02-14T13:08:17;9.50;;;5.13;;
59336;SDS011;45115;52.002;4.686;2024-02-14T13:10:54;9.93;;;5.22;;
59336;SDS011;45115;52.002;4.686;2024-02-14T13:48:46;10.43;;;4.97;;
59336;SDS011;45115;52.002;4.686;2024-02-14T13:51:13;10.90;;;4.88;;
59336;SDS011;45115;52.002;4.686;2024-02-14T13:53:40;10.02;;;4.95;;
59336;SDS011;45115;52.002;4.686;2024-02-14T13:56:06;9.63;;;4.07;;
59336;SDS011;45115;52.002;4.686;2024-02-14T13:58:33;6.68;;;3.28;;
59336;SDS011;45115;52.002;4.686;2024-02-14T14:01:00;6.63;;;3.88;;
59336;SDS011;45115;52.002;4.686;2024-02-14T14:03:27;7.65;;;4.03;;
59336;SDS011;45115;52.002;4.686;2024-02-14T14:05:56;7.00;;;3.78;;
59336;SDS011;45115;52.002;4.686;2024-02-14T14:08:23;8.00;;;3.90;;
59336;SDS011;45115;52.002;4.686;2024-02-14T14:10:50;7.47;;;3.75;;
59336;SDS011;45115;52.002;4.686;2024-02-14T14:13:17;9.00;;;4.30;;
59336;SDS011;45115;52.002;4.686;2024-02-14T14:15:44;6.93;;;3.70;;
59336;SDS011;45115;52.002;4.686;2024-02-14T14:18:11;7.32;;;3.92;;
59336;SDS011;45115;52.002;4.686;2024-02-14T14:20:37;8.60;;;4.45;;
59336;SDS011;45115;52.002;4.686;2024-02-14T14:23:05;9.43;;;4.10;;
59336;SDS011;45115;52.002;4.686;2024-02-14T14:25:34;7.63;;;4.40;;
59336;SDS011;45115;52.002;4.686;2024-02-14T14:28:02;8.07;;;4.10;;
59336;SDS011;45115;52.002;4.686;2024-02-14T14:30:29;8.70;;;4.18;;
59336;SDS011;45115;52.002;4.686;2024-02-14T14:32:56;8.77;;;3.88;;
59336;SDS011;45115;52.002;4.686;2024-02-14T14:35:23;5.60;;;3.05;;
59336;SDS011;45115;52.002;4.686;2024-02-14T14:37:50;6.70;;;3.72;;
59336;SDS011;45115;52.002;4.686;2024-02-14T14:40:18;6.97;;;3.33;;
59336;SDS011;45115;52.002;4.686;2024-02-14T14:42:46;5.40;;;3.65;;
59336;SDS011;45115;52.002;4.686;2024-02-14T14:45:13;6.85;;;3.30;;
59336;SDS011;45115;52.002;4.686;2024-02-14T14:47:40;5.82;;;3.20;;
59336;SDS011;45115;52.002;4.686;2024-02-14T14:50:07;4.28;;;3.35;;
59336;SDS011;45115;52.002;4.686;2024-02-14T14:52:34;5.13;;;3.30;;
59336;SDS011;45115;52.002;4.686;2024-02-14T14:55:01;5.22;;;3.03;;
59336;SDS011;45115;52.002;4.686;2024-02-14T14:57:29;3.88;;;2.95;;
59336;SDS011;45115;52.002;4.686;2024-02-14T14:59:56;4.38;;;3.10;;
59336;SDS011;45115;52.002;4.686;2024-02-14T15:02:23;4.78;;;3.30;;
59336;SDS011;45115;52.002;4.686;2024-02-14T15:04:50;4.43;;;3.30;;